sensor_id;sensor_type;location;lat;lon;timestamp;temperature;humidity
3644;DHT22;1838;50.742;7.158;2022-12-29T00:01:58;12.40;99.90
3644;DHT22;1838;50.742;7.158;2022-12-29T00:04:24;12.40;99.90
3644;DHT22;1838;50.742;7.158;2022-12-29T00:06:49;12.40;99.90
3644;DHT22;1838;50.742;7.158;2022-12-29T00:09:16;12.40;99.90
3644;DHT22;1838;50.742;7.158;2022-12-29T00:11:42;12.40;99.90
3644;DHT22;1838;50.742;7.158;2022-12-29T00:14:11;12.40;99.90
3644;DHT22;1838;50.742;7.158;2022-12-29T00:16:56;12.40;99.90
3644;DHT22;1838;50.742;7.158;2022-12-29T00:19:22;12.50;99.90
3644;DHT22;1838;50.742;7.158;2022-12-29T00:22:09;12.40;99.90
3644;DHT22;1838;50.742;7.158;2022-12-29T00:24:54;12.40;99.90
3644;DHT22;1838;50.742;7.158;2022-12-29T00:27:38;12.40;99.90
3644;DHT22;1838;50.742;7.158;2022-12-29T00:30:23;12.40;99.90
3644;DHT22;1838;50.742;7.158;2022-12-29T00:33:21;12.50;99.90
3644;DHT22;1838;50.742;7.158;2022-12-29T00:36:18;12.50;99.90
3644;DHT22;1838;50.742;7.158;2022-12-29T00:39:14;12.50;99.90
3644;DHT22;1838;50.742;7.158;2022-12-29T00:42:04;12.50;99.90
3644;DHT22;1838;50.742;7.158;2022-12-29T00:44:49;12.50;99.90
3644;DHT22;1838;50.742;7.158;2022-12-29T00:47:14;12.50;99.90
3644;DHT22;1838;50.742;7.158;2022-12-29T00:49:40;12.60;99.90
3644;DHT22;1838;50.742;7.158;2022-12-29T00:52:07;12.60;99.90
3644;DHT22;1838;50.742;7.158;2022-12-29T00:54:37;12.70;99.90
3644;DHT22;1838;50.742;7.158;2022-12-29T00:57:04;12.60;99.90
3644;DHT22;1838;50.742;7.158;2022-12-29T00:59:30;12.70;99.90
3644;DHT22;1838;50.742;7.158;2022-12-29T01:01:56;12.70;99.90
3644;DHT22;1838;50.742;7.158;2022-12-29T01:04:23;12.70;99.90
3644;DHT22;1838;50.742;7.158;2022-12-29T01:06:49;12.80;99.90
3644;DHT22;1838;50.742;7.158;2022-12-29T01:09:15;12.80;99.90
3644;DHT22;1838;50.742;7.158;2022-12-29T01:11:59;12.80;99.90
3644;DHT22;1838;50.742;7.158;2022-12-29T01:14:25;12.80;99.90
3644;DHT22;1838;50.742;7.158;2022-12-29T01:16:51;12.80;99.90
3644;DHT22;1838;50.742;7.158;2022-12-29T01:19:18;12.80;99.90
3644;DHT22;1838;50.742;7.158;2022-12-29T01:21:44;12.80;99.90
3644;DHT22;1838;50.742;7.158;2022-12-29T01:24:10;12.80;99.90
3644;DHT22;1838;50.742;7.158;2022-12-29T01:26:35;12.80;99.90
3644;DHT22;1838;50.742;7.158;2022-12-29T01:29:01;12.70;99.90
3644;DHT22;1838;50.742;7.158;2022-12-29T01:31:26;12.70;99.90
3644;DHT22;1838;50.742;7.158;2022-12-29T01:33:52;12.70;99.90
3644;DHT22;1838;50.742;7.158;2022-12-29T01:36:19;12.70;99.90
3644;DHT22;1838;50.742;7.158;2022-12-29T01:38:45;12.70;99.90
3644;DHT22;1838;50.742;7.158;2022-12-29T01:41:12;12.70;99.90
3644;DHT22;1838;50.742;7.158;2022-12-29T01:43:47;12.80;99.90
3644;DHT22;1838;50.742;7.158;2022-12-29T01:49:02;12.80;99.90
3644;DHT22;1838;50.742;7.158;2022-12-29T01:51:31;12.70;99.90
3644;DHT22;1838;50.742;7.158;2022-12-29T01:54:01;12.80;99.90
3644;DHT22;1838;50.742;7.158;2022-12-29T01:56:28;12.80;99.90
3644;DHT22;1838;50.742;7.158;2022-12-29T01:59:04;12.80;99.90
3644;DHT22;1838;50.742;7.158;2022-12-29T02:01:31;12.80;99.90
3644;DHT22;1838;50.742;7.158;2022-12-29T02:03:58;12.80;99.90
3644;DHT22;1838;50.742;7.158;2022-12-29T02:06:31;12.90;99.90
3644;DHT22;1838;50.742;7.158;2022-12-29T02:08:59;12.80;99.90
3644;DHT22;1838;50.742;7.158;2022-12-29T02:11:26;12.90;99.90
3644;DHT22;1838;50.742;7.158;2022-12-29T02:13:53;12.90;99.90
3644;DHT22;1838;50.742;7.158;2022-12-29T02:22:16;13.00;99.90
3644;DHT22;1838;50.742;7.158;2022-12-29T02:42:05;12.80;99.90
3644;DHT22;1838;50.742;7.158;2022-12-29T02:44:54;12.90;99.90
3644;DHT22;1838;50.742;7.158;2022-12-29T02:47:32;12.80;99.90
3644;DHT22;1838;50.742;7.158;2022-12-29T02:50:06;12.90;99.90
3644;DHT22;1838;50.742;7.158;2022-12-29T02:52:40;12.80;99.90
3644;DHT22;1838;50.742;7.158;2022-12-29T02:55:10;12.80;99.90
3644;DHT22;1838;50.742;7.158;2022-12-29T02:57:37;12.80;99.90
3644;DHT22;1838;50.742;7.158;2022-12-29T03:00:11;12.90;99.90
3644;DHT22;1838;50.742;7.158;2022-12-29T03:05:42;12.90;99.90
3644;DHT22;1838;50.742;7.158;2022-12-29T03:08:26;12.90;99.90
3644;DHT22;1838;50.742;7.158;2022-12-29T03:11:03;12.90;99.90
3644;DHT22;1838;50.742;7.158;2022-12-29T03:13:37;12.90;99.90
3644;DHT22;1838;50.742;7.158;2022-12-29T03:16:35;12.90;99.90
3644;DHT22;1838;50.742;7.158;2022-12-29T03:19:28;12.90;99.90
3644;DHT22;1838;50.742;7.158;2022-12-29T03:21:59;12.90;99.90
3644;DHT22;1838;50.742;7.158;2022-12-29T03:24:47;13.00;99.90
3644;DHT22;1838;50.742;7.158;2022-12-29T03:27:23;12.90;99.90
3644;DHT22;1838;50.742;7.158;2022-12-29T03:29:54;12.90;99.90
3644;DHT22;1838;50.742;7.158;2022-12-29T03:32:24;12.80;99.90
3644;DHT22;1838;50.742;7.158;2022-12-29T03:34:52;12.80;99.90
3644;DHT22;1838;50.742;7.158;2022-12-29T03:37:22;12.80;99.90
3644;DHT22;1838;50.742;7.158;2022-12-29T03:39:49;12.80;99.90
3644;DHT22;1838;50.742;7.158;2022-12-29T03:42:18;12.80;99.90
3644;DHT22;1838;50.742;7.158;2022-12-29T03:44:44;12.90;99.90
3644;DHT22;1838;50.742;7.158;2022-12-29T03:47:11;12.90;99.90
3644;DHT22;1838;50.742;7.158;2022-12-29T03:49:37;12.90;99.90
3644;DHT22;1838;50.742;7.158;2022-12-29T03:52:03;12.90;99.90
3644;DHT22;1838;50.742;7.158;2022-12-29T03:54:29;12.90;99.90
3644;DHT22;1838;50.742;7.158;2022-12-29T03:56:55;12.90;99.90
3644;DHT22;1838;50.742;7.158;2022-12-29T03:59:21;12.90;99.90
3644;DHT22;1838;50.742;7.158;2022-12-29T04:01:46;12.90;99.90
3644;DHT22;1838;50.742;7.158;2022-12-29T04:04:12;13.00;99.90
3644;DHT22;1838;50.742;7.158;2022-12-29T04:06:38;12.90;99.90
3644;DHT22;1838;50.742;7.158;2022-12-29T04:09:04;12.90;99.90
3644;DHT22;1838;50.742;7.158;2022-12-29T04:11:30;12.90;99.90
3644;DHT22;1838;50.742;7.158;2022-12-29T04:13:55;12.80;99.90
3644;DHT22;1838;50.742;7.158;2022-12-29T04:16:21;12.90;99.90
3644;DHT22;1838;50.742;7.158;2022-12-29T04:18:46;12.80;99.90
3644;DHT22;1838;50.742;7.158;2022-12-29T04:21:12;12.80;99.90
3644;DHT22;1838;50.742;7.158;2022-12-29T04:23:38;12.90;99.90
3644;DHT22;1838;50.742;7.158;2022-12-29T04:26:05;12.80;99.90
3644;DHT22;1838;50.742;7.158;2022-12-29T04:28:34;12.70;99.90
3644;DHT22;1838;50.742;7.158;2022-12-29T04:31:00;12.70;99.90
3644;DHT22;1838;50.742;7.158;2022-12-29T04:33:26;12.70;99.90
3644;DHT22;1838;50.742;7.158;2022-12-29T04:35:52;12.70;99.90
3644;DHT22;1838;50.742;7.158;2022-12-29T04:38:19;12.70;99.90
3644;DHT22;1838;50.742;7.158;2022-12-29T04:40:45;12.60;99.90
3644;DHT22;1838;50.742;7.158;2022-12-29T04:43:11;12.50;99.90
3644;DHT22;1838;50.742;7.158;2022-12-29T04:45:37;12.50;99.90
3644;DHT22;1838;50.742;7.158;2022-12-29T04:48:02;12.50;99.90
3644;DHT22;1838;50.742;7.158;2022-12-29T04:50:28;12.40;99.90
3644;DHT22;1838;50.742;7.158;2022-12-29T04:52:54;12.40;99.90
3644;DHT22;1838;50.742;7.158;2022-12-29T04:55:19;12.40;99.90
3644;DHT22;1838;50.742;7.158;2022-12-29T04:57:45;12.50;99.90
3644;DHT22;1838;50.742;7.158;2022-12-29T05:00:11;12.50;99.90
3644;DHT22;1838;50.742;7.158;2022-12-29T05:02:37;12.50;99.90
3644;DHT22;1838;50.742;7.158;2022-12-29T05:05:04;12.50;99.90
3644;DHT22;1838;50.742;7.158;2022-12-29T05:07:29;12.50;99.90
3644;DHT22;1838;50.742;7.158;2022-12-29T05:09:55;12.50;99.90
3644;DHT22;1838;50.742;7.158;2022-12-29T05:12:21;12.40;99.90
3644;DHT22;1838;50.742;7.158;2022-12-29T05:14:46;12.40;99.90
3644;DHT22;1838;50.742;7.158;2022-12-29T05:17:12;12.40;99.90
3644;DHT22;1838;50.742;7.158;2022-12-29T05:19:37;12.30;99.90
3644;DHT22;1838;50.742;7.158;2022-12-29T05:22:04;12.30;99.90
3644;DHT22;1838;50.742;7.158;2022-12-29T05:24:29;12.30;99.90
3644;DHT22;1838;50.742;7.158;2022-12-29T05:26:55;12.30;99.90
3644;DHT22;1838;50.742;7.158;2022-12-29T05:29:20;12.20;99.90
3644;DHT22;1838;50.742;7.158;2022-12-29T05:31:46;12.20;99.90
3644;DHT22;1838;50.742;7.158;2022-12-29T05:34:12;12.20;99.90
3644;DHT22;1838;50.742;7.158;2022-12-29T05:36:38;12.10;99.90
3644;DHT22;1838;50.742;7.158;2022-12-29T05:39:04;12.10;99.90
3644;DHT22;1838;50.742;7.158;2022-12-29T05:41:29;12.10;99.90
3644;DHT22;1838;50.742;7.158;2022-12-29T05:43:55;12.00;99.90
3644;DHT22;1838;50.742;7.158;2022-12-29T05:46:20;12.00;99.90
3644;DHT22;1838;50.742;7.158;2022-12-29T05:48:46;12.00;99.90
3644;DHT22;1838;50.742;7.158;2022-12-29T05:51:11;12.10;99.90
3644;DHT22;1838;50.742;7.158;2022-12-29T05:53:37;12.00;99.90
3644;DHT22;1838;50.742;7.158;2022-12-29T05:56:03;12.00;99.90
3644;DHT22;1838;50.742;7.158;2022-12-29T05:58:28;12.10;99.90
3644;DHT22;1838;50.742;7.158;2022-12-29T06:00:54;12.10;99.90
3644;DHT22;1838;50.742;7.158;2022-12-29T06:03:19;12.20;99.90
3644;DHT22;1838;50.742;7.158;2022-12-29T06:05:46;12.10;99.90
3644;DHT22;1838;50.742;7.158;2022-12-29T06:08:12;12.20;99.90
3644;DHT22;1838;50.742;7.158;2022-12-29T06:10:37;12.20;99.90
3644;DHT22;1838;50.742;7.158;2022-12-29T06:13:03;12.20;99.90
3644;DHT22;1838;50.742;7.158;2022-12-29T06:15:31;12.30;99.90
3644;DHT22;1838;50.742;7.158;2022-12-29T06:17:57;12.40;99.90
3644;DHT22;1838;50.742;7.158;2022-12-29T06:20:22;12.40;99.90
3644;DHT22;1838;50.742;7.158;2022-12-29T06:22:48;12.40;99.90
3644;DHT22;1838;50.742;7.158;2022-12-29T06:25:14;12.40;99.90
3644;DHT22;1838;50.742;7.158;2022-12-29T06:27:40;12.40;99.90
3644;DHT22;1838;50.742;7.158;2022-12-29T06:30:06;12.40;99.90
3644;DHT22;1838;50.742;7.158;2022-12-29T06:32:32;12.40;99.90
3644;DHT22;1838;50.742;7.158;2022-12-29T06:34:58;12.40;99.90
3644;DHT22;1838;50.742;7.158;2022-12-29T06:37:23;12.30;99.90
3644;DHT22;1838;50.742;7.158;2022-12-29T06:39:49;12.40;99.90
3644;DHT22;1838;50.742;7.158;2022-12-29T06:42:14;12.30;99.90
3644;DHT22;1838;50.742;7.158;2022-12-29T06:44:40;12.20;99.90
3644;DHT22;1838;50.742;7.158;2022-12-29T06:47:05;12.10;99.90
3644;DHT22;1838;50.742;7.158;2022-12-29T06:49:31;12.00;99.90
3644;DHT22;1838;50.742;7.158;2022-12-29T06:51:56;12.00;99.90
3644;DHT22;1838;50.742;7.158;2022-12-29T06:54:23;11.90;99.90
3644;DHT22;1838;50.742;7.158;2022-12-29T06:56:49;11.80;99.90
3644;DHT22;1838;50.742;7.158;2022-12-29T06:59:14;11.80;99.90
3644;DHT22;1838;50.742;7.158;2022-12-29T07:01:40;11.70;99.90
3644;DHT22;1838;50.742;7.158;2022-12-29T07:04:05;11.70;99.90
3644;DHT22;1838;50.742;7.158;2022-12-29T07:06:31;11.70;99.90
3644;DHT22;1838;50.742;7.158;2022-12-29T07:08:56;11.70;99.90
3644;DHT22;1838;50.742;7.158;2022-12-29T07:11:23;11.70;99.90
3644;DHT22;1838;50.742;7.158;2022-12-29T07:13:49;11.60;99.90
3644;DHT22;1838;50.742;7.158;2022-12-29T07:16:14;11.60;99.90
3644;DHT22;1838;50.742;7.158;2022-12-29T07:18:40;11.70;99.90
3644;DHT22;1838;50.742;7.158;2022-12-29T07:21:05;11.70;99.90
3644;DHT22;1838;50.742;7.158;2022-12-29T07:23:31;11.70;99.90
3644;DHT22;1838;50.742;7.158;2022-12-29T07:26:05;11.70;99.90
3644;DHT22;1838;50.742;7.158;2022-12-29T07:28:31;11.70;99.90
3644;DHT22;1838;50.742;7.158;2022-12-29T07:30:59;11.70;99.90
3644;DHT22;1838;50.742;7.158;2022-12-29T07:33:25;11.70;99.90
3644;DHT22;1838;50.742;7.158;2022-12-29T07:35:53;11.70;99.90
3644;DHT22;1838;50.742;7.158;2022-12-29T07:38:18;11.60;99.90
3644;DHT22;1838;50.742;7.158;2022-12-29T07:40:44;11.60;99.90
3644;DHT22;1838;50.742;7.158;2022-12-29T07:43:09;11.60;99.90
3644;DHT22;1838;50.742;7.158;2022-12-29T07:45:35;11.60;99.90
3644;DHT22;1838;50.742;7.158;2022-12-29T07:48:00;11.70;99.90
3644;DHT22;1838;50.742;7.158;2022-12-29T07:50:28;11.60;99.90
3644;DHT22;1838;50.742;7.158;2022-12-29T07:52:53;11.60;99.90
3644;DHT22;1838;50.742;7.158;2022-12-29T07:55:19;11.70;99.90
3644;DHT22;1838;50.742;7.158;2022-12-29T07:57:44;11.60;99.90
3644;DHT22;1838;50.742;7.158;2022-12-29T08:00:10;11.70;99.90
3644;DHT22;1838;50.742;7.158;2022-12-29T08:02:36;11.60;99.90
3644;DHT22;1838;50.742;7.158;2022-12-29T08:05:02;11.60;99.90
3644;DHT22;1838;50.742;7.158;2022-12-29T08:07:28;11.60;99.90
3644;DHT22;1838;50.742;7.158;2022-12-29T08:09:53;11.70;99.90
3644;DHT22;1838;50.742;7.158;2022-12-29T08:12:19;11.70;99.90
3644;DHT22;1838;50.742;7.158;2022-12-29T08:14:44;11.70;99.90
3644;DHT22;1838;50.742;7.158;2022-12-29T08:17:10;11.70;99.90
3644;DHT22;1838;50.742;7.158;2022-12-29T08:19:36;11.70;99.90
3644;DHT22;1838;50.742;7.158;2022-12-29T08:22:02;11.70;99.90
3644;DHT22;1838;50.742;7.158;2022-12-29T08:24:27;11.70;99.90
3644;DHT22;1838;50.742;7.158;2022-12-29T08:26:53;11.60;99.90
3644;DHT22;1838;50.742;7.158;2022-12-29T08:29:19;11.60;99.90
3644;DHT22;1838;50.742;7.158;2022-12-29T08:31:46;11.60;99.90
3644;DHT22;1838;50.742;7.158;2022-12-29T08:34:12;11.60;99.90
3644;DHT22;1838;50.742;7.158;2022-12-29T08:36:38;11.70;99.90
3644;DHT22;1838;50.742;7.158;2022-12-29T08:39:04;11.60;99.90
3644;DHT22;1838;50.742;7.158;2022-12-29T08:41:29;11.60;99.90
3644;DHT22;1838;50.742;7.158;2022-12-29T08:43:55;11.70;99.90
3644;DHT22;1838;50.742;7.158;2022-12-29T08:46:22;11.70;99.90
3644;DHT22;1838;50.742;7.158;2022-12-29T08:48:47;11.70;99.90
3644;DHT22;1838;50.742;7.158;2022-12-29T08:51:13;11.70;99.90
3644;DHT22;1838;50.742;7.158;2022-12-29T08:53:39;11.70;99.90
3644;DHT22;1838;50.742;7.158;2022-12-29T08:56:05;11.70;99.90
3644;DHT22;1838;50.742;7.158;2022-12-29T08:58:31;11.60;99.90
3644;DHT22;1838;50.742;7.158;2022-12-29T09:00:57;11.70;99.90
3644;DHT22;1838;50.742;7.158;2022-12-29T09:03:24;11.70;99.90
3644;DHT22;1838;50.742;7.158;2022-12-29T09:05:51;11.70;99.90
3644;DHT22;1838;50.742;7.158;2022-12-29T09:08:17;11.60;99.90
3644;DHT22;1838;50.742;7.158;2022-12-29T09:10:43;11.70;99.90
3644;DHT22;1838;50.742;7.158;2022-12-29T09:13:09;11.70;99.90
3644;DHT22;1838;50.742;7.158;2022-12-29T09:15:35;11.70;99.90
3644;DHT22;1838;50.742;7.158;2022-12-29T09:18:01;11.60;99.90
3644;DHT22;1838;50.742;7.158;2022-12-29T09:20:26;11.70;99.90
3644;DHT22;1838;50.742;7.158;2022-12-29T09:22:52;11.70;99.90
3644;DHT22;1838;50.742;7.158;2022-12-29T09:25:17;11.70;99.90
3644;DHT22;1838;50.742;7.158;2022-12-29T09:27:43;11.80;99.90
3644;DHT22;1838;50.742;7.158;2022-12-29T09:30:10;11.80;99.90
3644;DHT22;1838;50.742;7.158;2022-12-29T09:32:36;11.80;99.90
3644;DHT22;1838;50.742;7.158;2022-12-29T09:35:02;11.80;99.90
3644;DHT22;1838;50.742;7.158;2022-12-29T09:37:27;11.80;99.90
3644;DHT22;1838;50.742;7.158;2022-12-29T09:39:53;11.70;99.90
3644;DHT22;1838;50.742;7.158;2022-12-29T09:42:38;11.70;99.90
3644;DHT22;1838;50.742;7.158;2022-12-29T09:45:20;11.80;99.90
3644;DHT22;1838;50.742;7.158;2022-12-29T09:47:50;11.70;99.90
3644;DHT22;1838;50.742;7.158;2022-12-29T09:53:15;11.80;99.90
3644;DHT22;1838;50.742;7.158;2022-12-29T09:55:47;11.80;99.90
3644;DHT22;1838;50.742;7.158;2022-12-29T10:06:42;11.80;99.90
3644;DHT22;1838;50.742;7.158;2022-12-29T10:09:25;11.80;99.90
3644;DHT22;1838;50.742;7.158;2022-12-29T10:15:03;11.80;99.90
3644;DHT22;1838;50.742;7.158;2022-12-29T10:17:43;11.90;99.90
3644;DHT22;1838;50.742;7.158;2022-12-29T10:25:40;12.10;99.90
3644;DHT22;1838;50.742;7.158;2022-12-29T10:30:44;12.10;99.90
3644;DHT22;1838;50.742;7.158;2022-12-29T10:33:15;12.20;99.90
3644;DHT22;1838;50.742;7.158;2022-12-29T10:35:43;12.20;99.90
3644;DHT22;1838;50.742;7.158;2022-12-29T10:41:21;12.20;99.90
3644;DHT22;1838;50.742;7.158;2022-12-29T10:43:53;12.20;99.90
3644;DHT22;1838;50.742;7.158;2022-12-29T10:46:23;12.30;99.90
3644;DHT22;1838;50.742;7.158;2022-12-29T10:48:51;12.30;99.90
3644;DHT22;1838;50.742;7.158;2022-12-29T10:51:32;12.20;99.90
3644;DHT22;1838;50.742;7.158;2022-12-29T10:54:10;12.30;99.90
3644;DHT22;1838;50.742;7.158;2022-12-29T10:56:40;12.30;99.90
3644;DHT22;1838;50.742;7.158;2022-12-29T10:59:21;12.40;99.90
3644;DHT22;1838;50.742;7.158;2022-12-29T11:07:08;12.60;99.90
3644;DHT22;1838;50.742;7.158;2022-12-29T11:09:36;12.60;99.90
3644;DHT22;1838;50.742;7.158;2022-12-29T11:12:30;12.70;99.90
3644;DHT22;1838;50.742;7.158;2022-12-29T11:17:45;12.90;99.90
3644;DHT22;1838;50.742;7.158;2022-12-29T11:20:36;12.80;99.90
3644;DHT22;1838;50.742;7.158;2022-12-29T11:23:46;12.90;99.90
3644;DHT22;1838;50.742;7.158;2022-12-29T11:28:41;12.80;99.90
3644;DHT22;1838;50.742;7.158;2022-12-29T11:31:08;12.90;99.90
3644;DHT22;1838;50.742;7.158;2022-12-29T11:33:35;13.00;99.90
3644;DHT22;1838;50.742;7.158;2022-12-29T11:38:40;13.10;99.90
3644;DHT22;1838;50.742;7.158;2022-12-29T11:41:11;13.10;99.90
3644;DHT22;1838;50.742;7.158;2022-12-29T11:43:40;13.10;99.90
3644;DHT22;1838;50.742;7.158;2022-12-29T11:46:26;13.10;99.90
3644;DHT22;1838;50.742;7.158;2022-12-29T11:48:53;13.10;99.90
3644;DHT22;1838;50.742;7.158;2022-12-29T11:51:26;13.10;99.90
3644;DHT22;1838;50.742;7.158;2022-12-29T11:53:56;13.20;99.90
3644;DHT22;1838;50.742;7.158;2022-12-29T11:56:36;13.20;99.90
3644;DHT22;1838;50.742;7.158;2022-12-29T11:59:36;13.20;99.90
3644;DHT22;1838;50.742;7.158;2022-12-29T12:02:28;13.30;99.90
3644;DHT22;1838;50.742;7.158;2022-12-29T12:07:48;13.40;99.90
3644;DHT22;1838;50.742;7.158;2022-12-29T12:10:19;13.40;99.90
3644;DHT22;1838;50.742;7.158;2022-12-29T12:12:59;13.40;99.90
3644;DHT22;1838;50.742;7.158;2022-12-29T12:15:42;13.40;99.90
3644;DHT22;1838;50.742;7.158;2022-12-29T12:18:10;13.50;99.90
3644;DHT22;1838;50.742;7.158;2022-12-29T12:23:35;13.40;99.90
3644;DHT22;1838;50.742;7.158;2022-12-29T12:26:21;13.30;99.90
3644;DHT22;1838;50.742;7.158;2022-12-29T12:28:54;13.20;99.90
3644;DHT22;1838;50.742;7.158;2022-12-29T12:31:51;13.20;99.90
3644;DHT22;1838;50.742;7.158;2022-12-29T12:34:26;13.30;99.90
3644;DHT22;1838;50.742;7.158;2022-12-29T12:37:09;13.20;99.90
3644;DHT22;1838;50.742;7.158;2022-12-29T12:40:07;13.20;99.90
3644;DHT22;1838;50.742;7.158;2022-12-29T12:42:58;13.20;99.90
3644;DHT22;1838;50.742;7.158;2022-12-29T12:45:36;13.10;99.90
3644;DHT22;1838;50.742;7.158;2022-12-29T12:51:13;13.10;99.90
3644;DHT22;1838;50.742;7.158;2022-12-29T13:04:52;13.00;99.90
3644;DHT22;1838;50.742;7.158;2022-12-29T13:07:48;13.00;99.90
3644;DHT22;1838;50.742;7.158;2022-12-29T13:15:57;12.90;99.90
3644;DHT22;1838;50.742;7.158;2022-12-29T13:18:43;12.90;99.90
3644;DHT22;1838;50.742;7.158;2022-12-29T13:21:38;12.90;99.90
3644;DHT22;1838;50.742;7.158;2022-12-29T13:24:31;12.90;99.90
3644;DHT22;1838;50.742;7.158;2022-12-29T13:30:03;12.80;99.90
3644;DHT22;1838;50.742;7.158;2022-12-29T13:38:19;12.80;99.90
3644;DHT22;1838;50.742;7.158;2022-12-29T13:40:50;12.90;99.90
3644;DHT22;1838;50.742;7.158;2022-12-29T13:43:18;12.90;99.90
3644;DHT22;1838;50.742;7.158;2022-12-29T13:45:45;12.80;99.90
3644;DHT22;1838;50.742;7.158;2022-12-29T13:48:25;12.80;99.90
3644;DHT22;1838;50.742;7.158;2022-12-29T13:50:55;12.80;99.90
3644;DHT22;1838;50.742;7.158;2022-12-29T13:53:54;12.80;99.90
3644;DHT22;1838;50.742;7.158;2022-12-29T13:56:42;12.80;99.90
3644;DHT22;1838;50.742;7.158;2022-12-29T14:02:19;12.80;99.90
3644;DHT22;1838;50.742;7.158;2022-12-29T14:05:01;12.90;99.90
3644;DHT22;1838;50.742;7.158;2022-12-29T14:07:28;12.90;99.90
3644;DHT22;1838;50.742;7.158;2022-12-29T14:09:55;12.80;99.90
3644;DHT22;1838;50.742;7.158;2022-12-29T14:12:32;12.90;99.90
3644;DHT22;1838;50.742;7.158;2022-12-29T14:15:27;12.90;99.90
3644;DHT22;1838;50.742;7.158;2022-12-29T14:20:58;13.00;99.90
3644;DHT22;1838;50.742;7.158;2022-12-29T14:23:28;12.90;99.90
3644;DHT22;1838;50.742;7.158;2022-12-29T14:28:34;13.00;99.90
3644;DHT22;1838;50.742;7.158;2022-12-29T14:31:04;13.00;99.90
3644;DHT22;1838;50.742;7.158;2022-12-29T14:33:32;12.90;99.90
3644;DHT22;1838;50.742;7.158;2022-12-29T14:36:21;12.80;99.90
3644;DHT22;1838;50.742;7.158;2022-12-29T14:38:50;12.80;99.90
3644;DHT22;1838;50.742;7.158;2022-12-29T14:41:30;12.70;99.90
3644;DHT22;1838;50.742;7.158;2022-12-29T14:44:18;12.60;99.90
3644;DHT22;1838;50.742;7.158;2022-12-29T14:49:21;12.60;99.90
3644;DHT22;1838;50.742;7.158;2022-12-29T14:51:52;12.70;99.90
3644;DHT22;1838;50.742;7.158;2022-12-29T14:57:02;12.60;99.90
3644;DHT22;1838;50.742;7.158;2022-12-29T14:59:30;12.70;99.90
3644;DHT22;1838;50.742;7.158;2022-12-29T15:01:58;12.60;99.90
3644;DHT22;1838;50.742;7.158;2022-12-29T15:04:30;12.60;99.90
3644;DHT22;1838;50.742;7.158;2022-12-29T15:06:56;12.50;99.90
3644;DHT22;1838;50.742;7.158;2022-12-29T15:09:28;12.50;99.90
3644;DHT22;1838;50.742;7.158;2022-12-29T15:11:59;12.50;99.90
3644;DHT22;1838;50.742;7.158;2022-12-29T15:14:36;12.50;99.90
3644;DHT22;1838;50.742;7.158;2022-12-29T15:17:23;12.40;99.90
3644;DHT22;1838;50.742;7.158;2022-12-29T15:19:49;12.40;99.90
3644;DHT22;1838;50.742;7.158;2022-12-29T15:22:15;12.40;99.90
3644;DHT22;1838;50.742;7.158;2022-12-29T15:24:43;12.30;99.90
3644;DHT22;1838;50.742;7.158;2022-12-29T15:27:14;12.20;99.90
3644;DHT22;1838;50.742;7.158;2022-12-29T15:29:43;12.10;99.90
3644;DHT22;1838;50.742;7.158;2022-12-29T15:32:21;12.00;99.90
3644;DHT22;1838;50.742;7.158;2022-12-29T15:34:49;11.90;99.90
3644;DHT22;1838;50.742;7.158;2022-12-29T15:37:27;11.80;99.90
3644;DHT22;1838;50.742;7.158;2022-12-29T15:39:54;11.80;99.90
3644;DHT22;1838;50.742;7.158;2022-12-29T15:45:12;11.80;99.90
3644;DHT22;1838;50.742;7.158;2022-12-29T15:47:40;11.80;99.90
3644;DHT22;1838;50.742;7.158;2022-12-29T15:50:28;11.80;99.90
3644;DHT22;1838;50.742;7.158;2022-12-29T15:52:55;11.70;99.90
3644;DHT22;1838;50.742;7.158;2022-12-29T15:55:27;11.60;99.90
3644;DHT22;1838;50.742;7.158;2022-12-29T15:57:57;11.50;99.90
3644;DHT22;1838;50.742;7.158;2022-12-29T16:00:37;11.50;99.90
3644;DHT22;1838;50.742;7.158;2022-12-29T16:03:04;11.40;99.90
3644;DHT22;1838;50.742;7.158;2022-12-29T16:05:34;11.30;99.90
3644;DHT22;1838;50.742;7.158;2022-12-29T16:08:01;11.20;99.90
3644;DHT22;1838;50.742;7.158;2022-12-29T16:10:31;11.10;99.90
3644;DHT22;1838;50.742;7.158;2022-12-29T16:13:26;11.10;99.90
3644;DHT22;1838;50.742;7.158;2022-12-29T16:16:01;11.00;99.90
3644;DHT22;1838;50.742;7.158;2022-12-29T16:18:30;10.80;99.90
3644;DHT22;1838;50.742;7.158;2022-12-29T16:21:00;10.70;99.90
3644;DHT22;1838;50.742;7.158;2022-12-29T16:23:28;10.70;99.90
3644;DHT22;1838;50.742;7.158;2022-12-29T16:25:55;10.70;99.90
3644;DHT22;1838;50.742;7.158;2022-12-29T16:28:24;10.60;99.90
3644;DHT22;1838;50.742;7.158;2022-12-29T16:31:04;10.40;99.90
3644;DHT22;1838;50.742;7.158;2022-12-29T16:33:45;10.20;99.90
3644;DHT22;1838;50.742;7.158;2022-12-29T16:36:25;10.00;99.90
3644;DHT22;1838;50.742;7.158;2022-12-29T16:39:02;10.00;99.90
3644;DHT22;1838;50.742;7.158;2022-12-29T16:41:29;9.90;99.90
3644;DHT22;1838;50.742;7.158;2022-12-29T16:44:18;9.90;99.90
3644;DHT22;1838;50.742;7.158;2022-12-29T16:49:39;9.70;99.90
3644;DHT22;1838;50.742;7.158;2022-12-29T16:52:20;9.50;99.90
3644;DHT22;1838;50.742;7.158;2022-12-29T16:54:57;9.40;99.90
3644;DHT22;1838;50.742;7.158;2022-12-29T16:57:28;9.40;99.90
3644;DHT22;1838;50.742;7.158;2022-12-29T16:59:59;9.40;99.90
3644;DHT22;1838;50.742;7.158;2022-12-29T17:02:28;9.40;99.90
3644;DHT22;1838;50.742;7.158;2022-12-29T17:04:54;9.40;99.90
3644;DHT22;1838;50.742;7.158;2022-12-29T17:07:22;9.50;99.90
3644;DHT22;1838;50.742;7.158;2022-12-29T17:09:48;9.40;99.90
3644;DHT22;1838;50.742;7.158;2022-12-29T17:12:18;9.40;99.90
3644;DHT22;1838;50.742;7.158;2022-12-29T17:17:13;9.40;99.90
3644;DHT22;1838;50.742;7.158;2022-12-29T17:19:39;9.40;99.90
3644;DHT22;1838;50.742;7.158;2022-12-29T17:22:22;9.40;99.90
3644;DHT22;1838;50.742;7.158;2022-12-29T17:24:50;9.40;99.90
3644;DHT22;1838;50.742;7.158;2022-12-29T17:27:28;9.30;99.90
3644;DHT22;1838;50.742;7.158;2022-12-29T17:29:57;9.40;99.90
3644;DHT22;1838;50.742;7.158;2022-12-29T17:32:23;9.40;99.90
3644;DHT22;1838;50.742;7.158;2022-12-29T17:34:49;9.50;99.90
3644;DHT22;1838;50.742;7.158;2022-12-29T17:37:29;9.50;99.90
3644;DHT22;1838;50.742;7.158;2022-12-29T17:39:55;9.50;99.90
3644;DHT22;1838;50.742;7.158;2022-12-29T17:42:21;9.60;99.90
3644;DHT22;1838;50.742;7.158;2022-12-29T17:44:46;9.60;99.90
3644;DHT22;1838;50.742;7.158;2022-12-29T17:47:12;9.50;99.90
3644;DHT22;1838;50.742;7.158;2022-12-29T17:49:40;9.50;99.90
3644;DHT22;1838;50.742;7.158;2022-12-29T17:52:05;9.50;99.90
3644;DHT22;1838;50.742;7.158;2022-12-29T17:54:31;9.50;99.90
3644;DHT22;1838;50.742;7.158;2022-12-29T17:56:57;9.50;99.90
3644;DHT22;1838;50.742;7.158;2022-12-29T17:59:22;9.50;99.90
3644;DHT22;1838;50.742;7.158;2022-12-29T18:01:48;9.50;99.90
3644;DHT22;1838;50.742;7.158;2022-12-29T18:04:19;9.50;99.90
3644;DHT22;1838;50.742;7.158;2022-12-29T18:06:45;9.50;99.90
3644;DHT22;1838;50.742;7.158;2022-12-29T18:09:12;9.50;99.90
3644;DHT22;1838;50.742;7.158;2022-12-29T18:11:39;9.40;99.90
3644;DHT22;1838;50.742;7.158;2022-12-29T18:14:14;9.40;99.90
3644;DHT22;1838;50.742;7.158;2022-12-29T18:16:39;9.40;99.90
3644;DHT22;1838;50.742;7.158;2022-12-29T18:19:05;9.30;99.90
3644;DHT22;1838;50.742;7.158;2022-12-29T18:21:31;9.30;99.90
3644;DHT22;1838;50.742;7.158;2022-12-29T18:23:57;9.40;99.90
3644;DHT22;1838;50.742;7.158;2022-12-29T18:26:25;9.30;99.90
3644;DHT22;1838;50.742;7.158;2022-12-29T18:28:52;9.40;99.90
3644;DHT22;1838;50.742;7.158;2022-12-29T18:31:25;9.40;99.90